GMMH

Details ICAO GMMH (VIL)
Name DAKHLA
Region Morocco
Timezone Africa/El_Aaiun (UTC+1.0)
Plans Departing 17
Arriving 16
Stats Elevation 36 ft / 11 m (AMSL)
Location 23.718294° -15.931993°
Runways 1
Magnetic Variation 5.348° W
Sunrise 2017-03-27 07:01:53 UTC / 2017-03-27 08:01:53 Local
Sunset 2017-03-27 19:18:37 UTC / 2017-03-27 20:18:37 Local
Advertisement - Login to hide

Runways

ID Width Length Bearing (true) Bearing (mag) Surface Threshold Offset Overrun Length
03 148 ft / 45 m 9,886 ft / 3,013 m 22.66° 28.01° Asphalt 0 ft / 0 m 323 ft / 98 m
21 148 ft / 45 m 9,886 ft / 3,013 m 202.67° 208.02° Asphalt 0 ft / 0 m 377 ft / 115 m

Map

Weather

Temperature
Clouds and Precipitation
Forecast for 2017-03-27 06:00 UTC. Updated an hour ago
Winds

METAR

GMMH 270600Z 02018KT CAVOK 16/13 Q1018 NOSIG

TAF

TAF GMMH 270500Z 2706/2812 02018KT CAVOK

Frequencies

Tower 118.10 MHz TWR
Warning: Do not use this data for real-world aviation or navigation. No guarantee of current accuracy is given.